עמוד ראשי
METAR-TAF:

METAR-TAF

שדות תעופה :

Kotzebue, אלסקה, ארצות הברית

קו רוחב: 66-53-04N, קו אורך: 162-35-54W, גובה: 3מטר

תצפית מזג אוויר נוכחית

הדו"ח נערך לפני 1 שעות ו 21דקות, בשעה 15:53 UTC
רוח 4קשר מכיוון מזרח/צפון-מזרח
טמפרטורת 12 צלסיוס
לחות 82%
לחץ 1013 hPa
ראות: 16.1קילומטר
שמיים נקיים

METAR: PAOT 251553Z 07004KT 10SM CLR 12/09 A2990 RMK AO2 SLP124 T01170089

זמן: 09:14 (17:14 UTC)

תחזית

הדו"ח נערך לפני 5 שעות ו 35דקות, בשעה 11:39 UTC
תחזית בתוקף מ 25 ב 12 UTC עד 26 ב 12 UTC
רוח 6קשר מכיוון מזרח/דרום-מזרח
ראות: 10קילומטר
שמיים נקיים
מ 25 ב 1900UTC
רוח 12קשר מכיוון דרום-מזרח
ראות: 10קילומטר
עננים בינוניים בגובה 25000רגל
מ 26 ב 0300UTC
רוח 9קשר מכיוון דרום/דרום-מזרח
ראות: 10קילומטר
עננים בינוניים בגובה 8000רגל
ממטרים במרחב,

TAF: PAOT 251139Z 2512/2612 11006KT P6SM SKC FM251900 13012KT P6SM BKN250 FM260300 15009KT P6SM VCSH BKN080

תצפיות ותחזיות מזג אוויר לגבי יותר מ- 4,000 שדות תעופה ברחבי העולם. דוחות METAR ו- TAF.

התחנות הזמינות מסומנות בנקודות צהובות ואדומות על גבי המפה.

העבר את העכבר לנקודה הצבעונית על מנת לראות את שם התחנה.

לאחר מכן, לחץ כדי לראות את תוכן ואת תחזיות מזג האוויר.

כדי לשנות את המפה: לחץ על הכפתורים הירוקים עם הפלוס השחור כדי להתקרב; על הכפתור הירוק עם המקף כדי להתרחק; או בחיצים הירוקים למפות סמוכות.


METAR-TAF: